Time;durP1;ratioP1;P1;durP2;ratioP2;P2;SDS_P1;SDS_P2;PMS_P1;PMS_P2;Temp;Humidity;BMP_temperature;BMP_pressure;BME280_temperature;BME280_humidity;BME280_pressure;Samples;Min_cycle;Max_cycle;Signal;HPM_P1;HPM_P2
2021/06/29 00:02:12;;;;;;;7.97;7.28;;;23.20;64.10;;;;;;4863810;29;20021;-80
2021/06/29 00:04:38;;;;;;;8.80;7.72;;;23.20;64.60;;;;;;4863760;29;20162;-78
2021/06/29 00:07:04;;;;;;;7.55;6.85;;;23.20;64.10;;;;;;4865547;29;20028;-80
2021/06/29 00:09:29;;;;;;;7.80;7.10;;;23.20;64.60;;;;;;4865881;29;20097;-79
2021/06/29 00:11:55;;;;;;;9.18;7.22;;;23.20;64.70;;;;;;4862850;29;20025;-78
2021/06/29 00:14:21;;;;;;;9.98;8.27;;;23.20;64.70;;;;;;4861146;29;20033;-81
2021/06/29 00:16:46;;;;;;;11.95;10.05;;;23.20;64.90;;;;;;4856603;29;20032;-78
2021/06/29 00:19:12;;;;;;;9.85;8.85;;;23.10;65.10;;;;;;4865252;29;20030;-79
2021/06/29 00:21:37;;;;;;;11.98;7.95;;;23.10;64.80;;;;;;4857524;29;20090;-81
2021/06/29 00:24:03;;;;;;;9.45;8.45;;;23.10;65.00;;;;;;4855793;29;20029;-79
2021/06/29 00:26:29;;;;;;;8.18;7.38;;;23.00;65.60;;;;;;4861162;29;20067;-81
2021/06/29 00:28:57;;;;;;;8.27;7.47;;;23.00;65.30;;;;;;4863540;29;20034;-78
2021/06/29 00:31:23;;;;;;;10.77;9.05;;;23.00;65.30;;;;;;4860997;29;20505;-81
2021/06/29 00:33:49;;;;;;;12.35;9.80;;;23.00;65.30;;;;;;4858666;29;20029;-78
2021/06/29 00:36:15;;;;;;;8.27;7.40;;;22.90;65.50;;;;;;4857221;29;20041;-78
2021/06/29 00:38:41;;;;;;;8.23;7.40;;;22.90;65.20;;;;;;4860105;29;20441;-78
2021/06/29 00:41:07;;;;;;;8.43;7.45;;;22.80;65.60;;;;;;4859892;29;20029;-78
2021/06/29 00:43:32;;;;;;;9.27;7.85;;;22.90;65.40;;;;;;4856267;29;20037;-78
2021/06/29 00:45:58;;;;;;;8.77;7.57;;;23.00;65.90;;;;;;4858988;29;20051;-78
2021/06/29 00:48:23;;;;;;;8.38;7.57;;;22.90;66.00;;;;;;4860103;29;20051;-78
2021/06/29 00:50:49;;;;;;;8.25;7.47;;;22.90;66.10;;;;;;4860184;29;20033;-77
2021/06/29 00:53:15;;;;;;;8.65;7.13;;;22.80;66.10;;;;;;4849804;29;20241;-78
2021/06/29 00:55:41;;;;;;;8.95;7.47;;;22.80;66.20;;;;;;4859973;29;20029;-78
2021/06/29 00:58:09;;;;;;;9.10;8.20;;;22.80;66.30;;;;;;4858860;29;20049;-77
2021/06/29 01:00:35;;;;;;;9.98;7.85;;;22.80;66.30;;;;;;4860029;29;20051;-79
2021/06/29 01:03:00;;;;;;;11.85;7.82;;;22.70;66.50;;;;;;4858676;29;20037;-79
2021/06/29 01:05:26;;;;;;;8.82;7.32;;;22.70;66.80;;;;;;4859431;29;20057;-79
2021/06/29 01:07:51;;;;;;;9.15;7.28;;;22.70;66.80;;;;;;4860170;29;20177;-81
2021/06/29 01:10:18;;;;;;;8.93;7.90;;;22.70;66.80;;;;;;4859689;29;20094;-80
2021/06/29 01:12:44;;;;;;;8.43;7.70;;;22.70;67.20;;;;;;4858148;29;20053;-80
2021/06/29 01:15:11;;;;;;;8.48;7.68;;;22.60;67.30;;;;;;4858527;29;20426;-79
2021/06/29 01:17:36;;;;;;;8.63;7.82;;;22.60;67.60;;;;;;4863803;29;20030;-79
2021/06/29 01:20:07;;;;;;;8.52;7.47;;;22.50;67.20;;;;;;4872740;29;20044;-79
2021/06/29 01:22:36;;;;;;;8.90;8.00;;;22.50;67.70;;;;;;4866157;29;20029;-79
2021/06/29 01:25:01;;;;;;;8.23;7.43;;;22.50;67.80;;;;;;4860802;29;20044;-80
2021/06/29 01:32:23;;;;;;;8.90;8.10;;;22.40;68.20;;;;;;4863773;29;20040;-79
2021/06/29 01:34:48;;;;;;;8.40;7.60;;;22.40;68.40;;;;;;4859142;29;20079;-80
2021/06/29 01:37:15;;;;;;;8.93;8.13;;;22.40;68.40;;;;;;4862158;29;20057;-81
2021/06/29 01:39:56;;;;;;;10.80;8.90;;;22.40;68.30;;;;;;4857640;29;20037;-79
2021/06/29 01:42:22;;;;;;;9.48;7.82;;;22.30;69.00;;;;;;4856118;29;20068;-79
2021/06/29 01:44:48;;;;;;;8.75;7.95;;;22.30;69.10;;;;;;4862304;29;20030;-80
2021/06/29 01:47:23;;;;;;;8.93;8.02;;;22.40;69.30;;;;;;4854258;29;20061;-79
2021/06/29 01:49:49;;;;;;;8.77;7.97;;;22.40;69.40;;;;;;4857866;29;20045;-79
2021/06/29 01:52:14;;;;;;;10.13;9.13;;;22.40;69.50;;;;;;4859364;29;20026;-79
2021/06/29 01:54:41;;;;;;;9.38;7.95;;;22.40;69.80;;;;;;4861024;29;20037;-77
2021/06/29 01:57:07;;;;;;;9.10;8.20;;;22.40;69.60;;;;;;4861535;29;20049;-80
2021/06/29 01:59:32;;;;;;;8.55;7.75;;;22.40;70.00;;;;;;4852462;29;20037;-79
2021/06/29 02:01:58;;;;;;;8.50;7.70;;;22.40;70.20;;;;;;4856250;29;20410;-81
2021/06/29 02:04:24;;;;;;;9.25;8.38;;;22.40;70.40;;;;;;4860523;29;20029;-79
2021/06/29 02:06:50;;;;;;;8.88;8.07;;;22.40;70.60;;;;;;4860617;29;20021;-78
2021/06/29 02:09:16;;;;;;;9.05;8.25;;;22.40;70.50;;;;;;4860007;29;20467;-79
2021/06/29 02:11:42;;;;;;;9.15;8.23;;;22.40;70.10;;;;;;4859087;29;20099;-79
2021/06/29 02:14:08;;;;;;;8.80;8.00;;;22.40;70.60;;;;;;4859362;29;20051;-78
2021/06/29 02:16:34;;;;;;;9.45;8.45;;;22.50;70.80;;;;;;4859319;29;20038;-79
2021/06/29 02:19:00;;;;;;;8.73;7.93;;;22.50;70.70;;;;;;4858705;29;20037;-79
2021/06/29 02:21:25;;;;;;;8.90;8.10;;;22.50;70.90;;;;;;4854259;29;20503;-80
2021/06/29 02:23:51;;;;;;;9.65;8.65;;;22.40;71.10;;;;;;4856788;29;20068;-79
2021/06/29 02:26:17;;;;;;;8.35;7.65;;;22.40;71.20;;;;;;4859449;29;20061;-80
2021/06/29 02:28:43;;;;;;;8.55;7.65;;;22.40;71.40;;;;;;4860202;29;20581;-81
2021/06/29 02:31:09;;;;;;;12.60;9.20;;;22.40;71.30;;;;;;4856525;29;20034;-80
2021/06/29 02:33:35;;;;;;;9.98;8.45;;;22.50;71.50;;;;;;4861768;29;20042;-79
2021/06/29 02:36:01;;;;;;;10.00;8.43;;;22.50;71.70;;;;;;4863001;29;20093;-81
2021/06/29 02:38:26;;;;;;;8.45;7.68;;;22.40;71.20;;;;;;4861250;29;20081;-80
2021/06/29 02:40:55;;;;;;;10.05;9.10;;;22.40;71.70;;;;;;4861371;29;20034;-79
2021/06/29 02:43:21;;;;;;;8.98;8.02;;;22.50;71.40;;;;;;4860229;29;20037;-81
2021/06/29 02:45:46;;;;;;;8.93;7.85;;;22.40;71.90;;;;;;4864305;29;20039;-80
2021/06/29 02:48:12;;;;;;;10.60;8.10;;;22.40;71.80;;;;;;4862031;29;21089;-79
2021/06/29 02:50:39;;;;;;;9.48;8.57;;;22.30;72.20;;;;;;4863096;29;20041;-80
2021/06/29 02:53:05;;;;;;;9.13;8.23;;;22.50;72.20;;;;;;4860581;29;20029;-79
2021/06/29 02:55:31;;;;;;;9.75;8.23;;;22.40;72.50;;;;;;4869421;29;20044;-82
2021/06/29 02:57:56;;;;;;;9.45;8.65;;;22.30;72.80;;;;;;4869875;29;20045;-80
2021/06/29 03:00:22;;;;;;;9.00;8.10;;;22.30;73.10;;;;;;4874162;29;20046;-80
2021/06/29 03:02:49;;;;;;;8.70;7.88;;;22.40;72.90;;;;;;4868498;29;20026;-79
2021/06/29 03:05:15;;;;;;;9.23;8.30;;;22.30;73.40;;;;;;4866817;29;20033;-79
2021/06/29 03:07:42;;;;;;;9.70;8.80;;;22.30;73.70;;;;;;4862255;29;20076;-80
2021/06/29 03:10:09;;;;;;;9.25;8.38;;;22.30;73.80;;;;;;4861448;29;20034;-80
2021/06/29 03:12:34;;;;;;;9.10;8.30;;;22.40;74.00;;;;;;4859787;29;20053;-81
2021/06/29 03:15:01;;;;;;;10.48;9.13;;;22.30;74.10;;;;;;4866520;29;20133;-80
2021/06/29 03:17:28;;;;;;;10.43;9.52;;;22.30;74.50;;;;;;4866283;29;20108;-81
2021/06/29 03:19:55;;;;;;;9.80;8.82;;;22.30;74.60;;;;;;4859393;29;20029;-79
2021/06/29 03:22:21;;;;;;;9.48;8.52;;;22.30;74.60;;;;;;4849477;29;20053;-81
2021/06/29 03:24:47;;;;;;;9.80;8.75;;;22.40;75.20;;;;;;4838626;29;20025;-81
2021/06/29 03:27:13;;;;;;;10.80;8.32;;;22.40;75.30;;;;;;4858974;29;20397;-80
2021/06/29 03:29:38;;;;;;;10.20;9.20;;;22.40;75.80;;;;;;4869304;29;20040;-80
2021/06/29 03:32:06;;;;;;;9.60;8.70;;;22.40;75.40;;;;;;4850373;29;20025;-81
2021/06/29 03:34:31;;;;;;;9.88;8.75;;;22.40;76.00;;;;;;4861037;29;20037;-80
2021/06/29 03:36:57;;;;;;;11.25;9.70;;;22.50;76.20;;;;;;4863906;29;20036;-79
2021/06/29 03:39:22;;;;;;;11.80;8.95;;;22.40;75.80;;;;;;4865436;29;20182;-79
2021/06/29 03:41:48;;;;;;;10.30;9.15;;;22.50;76.20;;;;;;4860265;29;20036;-82
2021/06/29 03:44:17;;;;;;;10.88;9.38;;;22.40;76.60;;;;;;4867515;29;20105;-79
2021/06/29 03:46:42;;;;;;;14.00;9.50;;;22.50;76.80;;;;;;4866778;29;20029;-80
2021/06/29 03:49:08;;;;;;;10.80;9.75;;;22.50;77.10;;;;;;4870035;29;20673;-79
2021/06/29 03:51:34;;;;;;;10.25;8.60;;;22.50;77.00;;;;;;4867461;29;20030;-80
2021/06/29 03:53:59;;;;;;;11.45;9.18;;;22.50;77.30;;;;;;4863271;29;20033;-80
2021/06/29 03:56:29;;;;;;;9.73;8.77;;;;;;;;;;4863066;29;20034;-80
2021/06/29 03:59:09;;;;;;;10.75;9.65;;;22.60;76.80;;;;;;4865438;29;20029;-80
2021/06/29 04:01:35;;;;;;;10.35;9.23;;;22.60;78.00;;;;;;4862838;29;20388;-80
2021/06/29 04:04:02;;;;;;;14.02;9.00;;;22.60;78.30;;;;;;4864644;29;20116;-79
2021/06/29 04:06:36;;;;;;;11.25;8.75;;;22.60;78.30;;;;;;4853387;29;20038;-82
2021/06/29 04:09:04;;;;;;;9.65;8.65;;;22.60;78.50;;;;;;4862640;29;20038;-82
2021/06/29 04:11:29;;;;;;;10.10;9.13;;;22.60;79.10;;;;;;4867978;29;20041;-82
2021/06/29 04:13:55;;;;;;;10.70;9.70;;;22.50;79.30;;;;;;4861473;29;20034;-79
2021/06/29 04:16:21;;;;;;;9.85;8.85;;;22.50;79.60;;;;;;4853866;29;20143;-81
2021/06/29 04:18:47;;;;;;;9.75;8.90;;;22.60;79.90;;;;;;4864828;29;20026;-81
2021/06/29 04:21:13;;;;;;;9.77;8.77;;;22.70;79.50;;;;;;4860920;29;20028;-79
2021/06/29 04:23:39;;;;;;;10.07;9.07;;;22.60;80.00;;;;;;4848272;29;20029;-79
2021/06/29 04:26:05;;;;;;;10.82;9.10;;;22.60;80.20;;;;;;4862957;29;20022;-79
2021/06/29 04:28:31;;;;;;;11.02;9.85;;;22.70;80.80;;;;;;4860841;29;20068;-79
2021/06/29 04:30:57;;;;;;;11.38;10.25;;;22.70;81.00;;;;;;4863929;29;20049;-80
2021/06/29 04:33:23;;;;;;;11.13;9.90;;;22.70;80.80;;;;;;4856659;29;20065;-82
2021/06/29 04:35:49;;;;;;;12.63;9.93;;;22.70;81.30;;;;;;4845145;29;20032;-79
2021/06/29 04:38:15;;;;;;;9.82;8.77;;;22.80;81.60;;;;;;4862796;29;20149;-79
2021/06/29 04:40:40;;;;;;;12.98;9.95;;;22.80;80.90;;;;;;4865634;29;20124;-79
2021/06/29 04:43:06;;;;;;;13.98;9.38;;;22.80;81.60;;;;;;4856481;29;20120;-78
2021/06/29 04:45:32;;;;;;;11.23;9.70;;;22.70;81.90;;;;;;4864988;29;20048;-80
2021/06/29 04:47:58;;;;;;;12.95;10.20;;;;;;;;;;4863350;29;20025;-79
2021/06/29 04:50:24;;;;;;;11.35;10.18;;;22.60;82.50;;;;;;4855282;29;20036;-78
2021/06/29 04:52:51;;;;;;;15.45;11.82;;;22.60;82.90;;;;;;4856382;29;20060;-78
2021/06/29 04:55:17;;;;;;;12.48;10.93;;;22.60;83.50;;;;;;4867762;29;20467;-80
2021/06/29 04:57:44;;;;;;;12.23;11.00;;;22.60;83.90;;;;;;4852455;29;20494;-79
2021/06/29 05:00:13;;;;;;;10.90;9.77;;;22.60;84.40;;;;;;4866945;29;20053;-79
2021/06/29 05:02:39;;;;;;;11.57;10.35;;;22.70;84.60;;;;;;4856825;29;20183;-78
2021/06/29 05:05:06;;;;;;;16.52;9.93;;;22.90;84.00;;;;;;4861348;29;20024;-79
2021/06/29 05:07:31;;;;;;;15.85;10.70;;;22.90;84.50;;;;;;4866774;29;20140;-78
2021/06/29 05:09:57;;;;;;;11.55;10.45;;;;;;;;;;4861503;29;20116;-79
2021/06/29 05:12:23;;;;;;;12.88;10.85;;;23.00;84.60;;;;;;4859902;29;20034;-79
2021/06/29 05:14:49;;;;;;;13.07;10.77;;;23.20;84.70;;;;;;4863702;29;20040;-79
2021/06/29 05:17:14;;;;;;;12.73;11.18;;;23.20;84.90;;;;;;4865534;29;20037;-79
2021/06/29 05:19:40;;;;;;;15.43;11.75;;;23.20;85.00;;;;;;4860052;29;20030;-79
2021/06/29 05:22:06;;;;;;;10.52;9.60;;;23.20;85.10;;;;;;4861417;29;20633;-80
2021/06/29 05:24:32;;;;;;;12.55;10.60;;;23.40;84.90;;;;;;4864809;29;20108;-80
2021/06/29 05:26:58;;;;;;;12.65;10.25;;;23.60;84.60;;;;;;4858622;29;20610;-78
2021/06/29 05:29:23;;;;;;;11.43;10.38;;;23.70;84.50;;;;;;4866687;29;20032;-78
2021/06/29 05:31:49;;;;;;;10.35;9.27;;;23.70;84.40;;;;;;4862806;29;20038;-78
2021/06/29 05:34:15;;;;;;;11.93;10.52;;;23.80;84.10;;;;;;4858079;29;20034;-78
2021/06/29 05:36:41;;;;;;;11.57;9.45;;;23.90;84.10;;;;;;4866728;29;20033;-77
2021/06/29 05:39:07;;;;;;;12.60;9.85;;;24.10;83.30;;;;;;4869302;29;20550;-78
2021/06/29 05:41:32;;;;;;;10.80;9.80;;;24.10;83.70;;;;;;4863871;29;20105;-73
2021/06/29 05:43:58;;;;;;;11.38;10.05;;;24.20;83.10;;;;;;4865603;29;20116;-75
2021/06/29 05:46:23;;;;;;;11.82;10.13;;;24.20;83.70;;;;;;4863908;29;20025;-75
2021/06/29 05:48:51;;;;;;;11.68;10.48;;;24.10;83.90;;;;;;4866126;29;20094;-74
2021/06/29 05:51:17;;;;;;;13.85;10.88;;;24.00;84.00;;;;;;4864408;29;20316;-74
2021/06/29 05:53:42;;;;;;;12.75;10.18;;;24.10;84.10;;;;;;4861053;29;20036;-74
2021/06/29 05:56:11;;;;;;;11.23;10.05;;;24.10;84.30;;;;;;4864589;29;20033;-74
2021/06/29 05:58:37;;;;;;;11.18;10.18;;;24.20;84.40;;;;;;4841522;29;20060;-74
2021/06/29 06:01:04;;;;;;;11.20;10.10;;;24.20;84.50;;;;;;4842906;29;20053;-74
2021/06/29 06:03:29;;;;;;;14.35;12.48;;;24.20;85.10;;;;;;4837985;29;20030;-75
2021/06/29 06:05:55;;;;;;;11.95;10.70;;;24.10;84.90;;;;;;4840206;29;20018;-74
2021/06/29 06:08:20;;;;;;;12.57;11.25;;;24.20;85.00;;;;;;4844072;29;20538;-74
2021/06/29 06:10:46;;;;;;;12.48;11.07;;;24.30;84.80;;;;;;4838738;29;20605;-75
2021/06/29 06:13:11;;;;;;;13.82;10.25;;;24.40;85.30;;;;;;4839158;29;20108;-74
2021/06/29 06:15:37;;;;;;;12.05;10.82;;;24.50;84.30;;;;;;4837335;29;20133;-74
2021/06/29 06:18:05;;;;;;;12.00;10.38;;;24.60;84.00;;;;;;4840008;29;20564;-74
2021/06/29 06:20:31;;;;;;;12.35;11.07;;;24.70;83.30;;;;;;4835469;29;20034;-74
2021/06/29 06:22:57;;;;;;;12.77;11.52;;;25.00;83.50;;;;;;4839121;29;20037;-75
2021/06/29 06:25:22;;;;;;;12.45;11.35;;;25.30;83.10;;;;;;4839083;29;20399;-74
2021/06/29 06:27:48;;;;;;;12.32;11.13;;;25.40;82.40;;;;;;4836281;29;20392;-74
2021/06/29 06:30:14;;;;;;;11.38;10.27;;;25.50;82.40;;;;;;4838807;29;20093;-74
2021/06/29 06:32:40;;;;;;;15.73;12.23;;;25.60;82.30;;;;;;4837451;29;20574;-75
2021/06/29 06:35:06;;;;;;;11.60;10.45;;;25.70;82.50;;;;;;4839097;29;20038;-75
2021/06/29 06:37:32;;;;;;;13.43;11.73;;;;;;;;;;4836589;29;20037;-75
2021/06/29 06:39:58;;;;;;;13.65;10.63;;;26.80;79.50;;;;;;4836014;29;20168;-83
2021/06/29 06:42:23;;;;;;;11.32;10.15;;;27.30;78.40;;;;;;4836256;29;20102;-84
2021/06/29 06:44:49;;;;;;;13.43;10.40;;;28.10;76.70;;;;;;4844121;29;20102;-82
2021/06/29 06:47:14;;;;;;;17.17;10.48;;;29.50;72.70;;;;;;4839550;29;20030;-81
2021/06/29 06:49:40;;;;;;;12.02;9.65;;;30.60;70.20;;;;;;4839322;29;20026;-82
2021/06/29 06:52:07;;;;;;;12.60;9.90;;;31.10;67.70;;;;;;4837417;29;20095;-84
2021/06/29 06:54:32;;;;;;;11.15;10.02;;;31.10;67.40;;;;;;4838568;29;20030;-83
2021/06/29 06:56:58;;;;;;;15.48;10.98;;;31.50;66.60;;;;;;4848974;29;20414;-84
2021/06/29 06:59:23;;;;;;;11.25;10.15;;;31.70;65.40;;;;;;4857642;29;20542;-83
2021/06/29 07:01:49;;;;;;;16.23;10.60;;;32.30;63.80;;;;;;4842320;29;20313;-82
2021/06/29 07:04:16;;;;;;;12.98;10.85;;;32.10;63.70;;;;;;4852310;29;20090;-84
2021/06/29 07:06:42;;;;;;;11.60;10.45;;;32.10;63.50;;;;;;4856247;29;20085;-83
2021/06/29 07:09:08;;;;;;;12.32;10.85;;;33.50;60.50;;;;;;4857126;29;20022;-84
2021/06/29 07:11:34;;;;;;;10.90;9.80;;;33.80;59.70;;;;;;4859790;29;20483;-84
2021/06/29 07:13:59;;;;;;;11.48;10.30;;;33.80;60.30;;;;;;4858576;29;20117;-85
2021/06/29 07:16:26;;;;;;;10.85;9.77;;;33.30;59.10;;;;;;4855941;29;20120;-84
2021/06/29 07:18:52;;;;;;;10.43;9.18;;;;;;;;;;4854819;29;20157;-84
2021/06/29 07:21:18;;;;;;;9.95;9.15;;;;;;;;;;4860909;29;20033;-84
2021/06/29 07:23:44;;;;;;;12.13;10.85;;;32.50;60.10;;;;;;4856882;29;20033;-83
2021/06/29 07:26:09;;;;;;;11.02;9.52;;;32.60;60.70;;;;;;4857269;29;20030;-81
2021/06/29 07:28:44;;;;;;;11.82;10.55;;;33.60;59.60;;;;;;4856710;29;20045;-82
2021/06/29 07:31:11;;;;;;;30.17;12.30;;;33.90;58.60;;;;;;4856208;29;20034;-81
2021/06/29 07:33:37;;;;;;;27.63;11.30;;;33.20;59.30;;;;;;4856938;29;20119;-78
2021/06/29 07:36:03;;;;;;;14.35;10.63;;;33.10;59.90;;;;;;4839949;29;20551;-80
2021/06/29 07:38:28;;;;;;;14.57;10.13;;;31.80;60.90;;;;;;4855864;29;20041;-81
2021/06/29 07:40:54;;;;;;;14.65;10.77;;;31.70;61.40;;;;;;4855048;29;20465;-82
2021/06/29 07:43:20;;;;;;;12.05;10.75;;;31.30;62.30;;;;;;4854288;29;20034;-82
2021/06/29 07:45:46;;;;;;;18.25;11.25;;;30.70;63.30;;;;;;4856532;29;20085;-82
2021/06/29 07:48:12;;;;;;;15.27;10.63;;;30.20;64.90;;;;;;4838944;29;20116;-82
2021/06/29 07:50:38;;;;;;;11.77;10.65;;;30.10;65.60;;;;;;4856278;29;20109;-79
2021/06/29 07:53:03;;;;;;;12.70;10.68;;;30.10;65.40;;;;;;4853816;29;20021;-77
2021/06/29 07:55:30;;;;;;;21.33;15.40;;;30.60;64.80;;;;;;4856140;29;20037;-77
2021/06/29 07:57:56;;;;;;;13.63;12.25;;;30.30;65.40;;;;;;4856268;29;20537;-78
2021/06/29 08:00:22;;;;;;;19.90;14.48;;;30.00;65.80;;;;;;4856073;29;20041;-78
2021/06/29 08:02:47;;;;;;;13.35;11.00;;;29.90;66.40;;;;;;4856524;29;20159;-78
2021/06/29 08:05:13;;;;;;;12.93;10.30;;;30.80;64.50;;;;;;4852513;29;20093;-77
2021/06/29 08:07:38;;;;;;;11.27;10.18;;;30.80;64.80;;;;;;4840083;29;20034;-76
2021/06/29 08:10:11;;;;;;;12.20;11.00;;;31.30;63.80;;;;;;4855352;29;20034;-77
2021/06/29 08:12:37;;;;;;;10.88;9.52;;;32.80;62.00;;;;;;4857367;29;20037;-77
2021/06/29 08:15:04;;;;;;;11.95;10.95;;;32.90;60.90;;;;;;4856312;29;20034;-77
2021/06/29 08:17:29;;;;;;;13.05;9.73;;;32.90;60.70;;;;;;4840530;29;20403;-78
2021/06/29 08:19:55;;;;;;;10.57;9.52;;;33.10;60.30;;;;;;4856075;29;20033;-78
2021/06/29 08:22:22;;;;;;;10.95;9.85;;;32.90;60.20;;;;;;4856051;29;20037;-78
2021/06/29 08:24:48;;;;;;;12.13;9.95;;;34.10;59.10;;;;;;4856377;29;20038;-77
2021/06/29 08:27:14;;;;;;;17.92;11.60;;;34.20;58.20;;;;;;4855966;29;20029;-76
2021/06/29 08:29:42;;;;;;;11.20;9.20;;;33.70;58.90;;;;;;4856471;29;20475;-77
2021/06/29 08:32:08;;;;;;;17.10;14.98;;;33.00;59.30;;;;;;4856357;29;20029;-77
2021/06/29 08:34:33;;;;;;;13.15;8.65;;;32.10;60.40;;;;;;4856620;29;20037;-77
2021/06/29 08:36:59;;;;;;;11.02;9.93;;;31.80;61.70;;;;;;4856943;29;20554;-78
2021/06/29 08:39:25;;;;;;;11.23;10.23;;;31.50;60.60;;;;;;4857064;29;20486;-78
2021/06/29 08:41:51;;;;;;;9.98;8.02;;;31.60;60.80;;;;;;4858247;29;20038;-76
2021/06/29 08:44:32;;;;;;;8.75;8.05;;;31.90;60.50;;;;;;4847129;29;20213;-79
2021/06/29 08:46:57;;;;;;;8.90;8.20;;;32.10;60.30;;;;;;4863100;29;20542;-76
2021/06/29 08:49:23;;;;;;;8.90;8.13;;;32.20;59.70;;;;;;4864055;29;20072;-78
2021/06/29 08:51:51;;;;;;;9.00;8.00;;;32.20;59.50;;;;;;4864112;29;20034;-78
2021/06/29 08:54:19;;;;;;;9.52;8.52;;;32.10;60.00;;;;;;4863079;29;20044;-78
2021/06/29 08:56:45;;;;;;;10.48;8.43;;;32.00;60.00;;;;;;4863011;29;20113;-78
2021/06/29 08:59:11;;;;;;;9.68;8.57;;;31.50;60.50;;;;;;4865338;29;20143;-78
2021/06/29 09:01:36;;;;;;;12.63;9.27;;;31.80;60.30;;;;;;4866565;29;20017;-78
2021/06/29 09:04:02;;;;;;;8.90;8.05;;;31.90;60.30;;;;;;4863923;29;20026;-79
2021/06/29 09:06:33;;;;;;;12.40;9.43;;;32.00;60.30;;;;;;4863894;29;20033;-77
2021/06/29 09:09:23;;;;;;;9.75;8.70;;;31.60;60.50;;;;;;4864088;29;20040;-78
2021/06/29 09:11:49;;;;;;;10.43;9.23;;;31.70;60.80;;;;;;4860688;29;20034;-77
2021/06/29 09:14:16;;;;;;;13.43;11.88;;;31.90;59.90;;;;;;4861404;29;20082;-78
2021/06/29 09:16:46;;;;;;;10.68;8.60;;;31.80;59.90;;;;;;4863107;29;20093;-78
2021/06/29 09:19:12;;;;;;;9.70;8.15;;;31.80;60.30;;;;;;4865428;29;20065;-77
2021/06/29 09:21:38;;;;;;;9.20;8.32;;;32.00;60.00;;;;;;4857827;29;20053;-75
2021/06/29 09:24:05;;;;;;;9.13;6.97;;;32.10;59.50;;;;;;4857232;29;20034;-77
2021/06/29 09:26:37;;;;;;;10.65;8.27;;;31.70;59.80;;;;;;4863867;29;20037;-76
2021/06/29 09:29:03;;;;;;;9.43;8.30;;;30.90;60.80;;;;;;4860120;29;20029;-78
2021/06/29 09:31:32;;;;;;;9.52;7.95;;;30.80;61.40;;;;;;4860962;29;20043;-78
2021/06/29 09:34:02;;;;;;;8.73;7.93;;;30.60;61.10;;;;;;4864201;29;20033;-77
2021/06/29 09:36:31;;;;;;;;;;;30.60;61.60;;;;;;4857204;29;20029;-77
2021/06/29 09:38:59;;;;;;;8.93;7.82;;;30.30;60.80;;;;;;4841026;29;20412;-80
2021/06/29 09:41:30;;;;;;;9.45;8.63;;;30.30;61.70;;;;;;4862972;29;20467;-82
2021/06/29 09:44:04;;;;;;;10.35;9.00;;;30.20;61.50;;;;;;4859356;29;20025;-79
2021/06/29 09:46:29;;;;;;;9.48;8.15;;;30.10;62.40;;;;;;4858659;29;20508;-80
2021/06/29 09:48:59;;;;;;;12.02;10.18;;;30.20;62.50;;;;;;4854653;29;20041;-80
2021/06/29 09:51:30;;;;;;;9.40;8.43;;;30.20;62.00;;;;;;4858149;29;20041;-80
2021/06/29 09:53:59;;;;;;;9.55;7.70;;;30.40;61.80;;;;;;4839568;29;20068;-80
2021/06/29 09:56:28;;;;;;;8.95;8.05;;;30.50;62.10;;;;;;4860021;29;20037;-79
2021/06/29 09:58:56;;;;;;;8.75;7.88;;;30.60;61.30;;;;;;4859856;29;20124;-79
2021/06/29 10:01:26;;;;;;;9.82;8.82;;;30.60;61.30;;;;;;4859453;29;20052;-79
2021/06/29 10:03:52;;;;;;;8.60;7.80;;;30.40;60.80;;;;;;4858678;29;20109;-80
2021/06/29 10:06:26;;;;;;;10.18;9.10;;;30.60;61.80;;;;;;4858827;29;20071;-81
2021/06/29 10:08:55;;;;;;;8.77;7.93;;;30.80;61.40;;;;;;4833505;29;20034;-80
2021/06/29 10:11:31;;;;;;;9.13;7.90;;;30.80;61.20;;;;;;4858503;29;20116;-80
2021/06/29 10:14:08;;;;;;;10.52;9.48;;;31.60;60.30;;;;;;4859132;29;20513;-80
2021/06/29 10:16:40;;;;;;;10.02;8.32;;;31.90;60.00;;;;;;4856047;29;20033;-80
2021/06/29 10:21:39;;;;;;;11.90;10.68;;;33.40;57.70;;;;;;4854515;29;20057;-81
2021/06/29 10:24:07;;;;;;;11.93;10.73;;;33.30;57.80;;;;;;4858627;29;20057;-81
2021/06/29 10:26:35;;;;;;;11.35;10.18;;;33.30;57.60;;;;;;4858386;29;20034;-82
2021/06/29 10:29:03;;;;;;;10.50;9.60;;;33.10;57.70;;;;;;4858218;29;20040;-81
2021/06/29 10:31:31;;;;;;;10.45;9.55;;;32.40;57.40;;;;;;4854311;29;20030;-82
2021/06/29 10:33:59;;;;;;;12.02;10.93;;;32.40;58.00;;;;;;4859510;29;20093;-81
2021/06/29 10:36:26;;;;;;;10.68;9.63;;;32.00;58.80;;;;;;4859107;29;20034;-81
2021/06/29 10:38:53;;;;;;;9.25;8.30;;;31.90;58.80;;;;;;4858637;29;20029;-80
2021/06/29 10:41:22;;;;;;;14.07;9.35;;;31.90;58.90;;;;;;4865456;29;20037;-80
2021/06/29 10:43:48;;;;;;;12.20;9.40;;;31.90;59.30;;;;;;4860861;29;20053;-82
2021/06/29 10:46:47;;;;;;;13.23;9.10;;;31.60;59.40;;;;;;4858522;29;20084;-82
2021/06/29 10:49:38;;;;;;;9.70;8.45;;;31.40;59.20;;;;;;4825311;29;20038;-81
2021/06/29 10:52:23;;;;;;;9.93;8.95;;;31.20;59.30;;;;;;4859050;29;20108;-83
2021/06/29 10:54:55;;;;;;;11.02;10.02;;;30.60;60.70;;;;;;4858288;29;20538;-81
2021/06/29 10:57:25;;;;;;;9.82;8.70;;;30.20;61.40;;;;;;4857803;29;20064;-80
2021/06/29 10:59:55;;;;;;;11.35;10.18;;;29.90;62.20;;;;;;4855201;29;20117;-84
2021/06/29 11:02:28;;;;;;;12.05;10.18;;;29.60;62.90;;;;;;4863441;29;20151;-84
2021/06/29 11:04:54;;;;;;;12.23;11.02;;;29.40;64.20;;;;;;4860420;29;20029;-84
2021/06/29 11:07:26;;;;;;;12.20;11.02;;;29.00;66.00;;;;;;4857953;29;20192;-84
2021/06/29 11:09:53;;;;;;;13.55;11.45;;;28.90;67.60;;;;;;4857918;29;20102;-84
2021/06/29 11:12:27;;;;;;;14.75;12.60;;;28.80;68.60;;;;;;4852936;29;20045;-83
2021/06/29 11:14:55;;;;;;;12.98;11.82;;;28.70;69.40;;;;;;4852478;29;20179;-83
2021/06/29 11:17:23;;;;;;;13.07;11.98;;;28.90;68.90;;;;;;4856358;29;20076;-84
2021/06/29 11:20:00;;;;;;;14.02;11.73;;;28.90;69.40;;;;;;4857088;29;20041;-83
2021/06/29 11:22:48;;;;;;;12.93;11.60;;;29.10;69.50;;;;;;4853220;29;20026;-83
2021/06/29 11:25:28;;;;;;;15.32;12.77;;;29.60;68.70;;;;;;4854894;29;20032;-83
2021/06/29 11:28:16;;;;;;;10.07;9.15;;;29.40;67.00;;;;;;4857570;29;20086;-84
2021/06/29 11:30:55;;;;;;;8.48;7.75;;;29.30;67.20;;;;;;4858146;29;20173;-84
2021/06/29 11:33:40;;;;;;;8.13;7.32;;;28.80;68.10;;;;;;4857083;29;20041;-83
2021/06/29 11:36:26;;;;;;;8.85;8.05;;;28.60;68.80;;;;;;4855026;29;20514;-82
2021/06/29 11:39:22;;;;;;;10.65;9.65;;;29.20;68.00;;;;;;4837295;29;20034;-84
2021/06/29 11:41:56;;;;;;;10.85;8.65;;;29.50;68.20;;;;;;4852854;29;20707;-83
2021/06/29 11:44:21;;;;;;;8.98;8.18;;;29.90;67.70;;;;;;4856764;29;20040;-80
2021/06/29 11:46:53;;;;;;;9.53;7.87;;;30.20;66.30;;;;;;4857345;29;20125;-83
2021/06/29 11:49:30;;;;;;;13.07;8.15;;;30.30;65.80;;;;;;4854023;29;20286;-82
2021/06/29 11:52:07;;;;;;;8.43;7.45;;;31.50;64.80;;;;;;4852710;29;20470;-84
2021/06/29 11:54:39;;;;;;;9.15;8.45;;;32.70;62.40;;;;;;4839654;29;20052;-84
2021/06/29 11:57:24;;;;;;;10.82;9.73;;;32.60;62.40;;;;;;4856640;29;20142;-84
2021/06/29 11:59:51;;;;;;;9.63;8.93;;;32.10;62.90;;;;;;4856778;29;20029;-85
2021/06/29 12:02:24;;;;;;;10.57;9.60;;;31.80;63.40;;;;;;4855813;29;20658;-84
2021/06/29 12:05:01;;;;;;;11.25;10.20;;;32.00;63.80;;;;;;4856050;29;20077;-78
2021/06/29 12:07:33;;;;;;;11.48;10.30;;;31.40;64.20;;;;;;4849395;29;20033;-79
2021/06/29 12:09:59;;;;;;;12.85;11.18;;;31.50;64.50;;;;;;4853207;29;20089;-79
2021/06/29 12:12:27;;;;;;;11.52;10.50;;;31.70;63.70;;;;;;4856083;29;20033;-85
2021/06/29 12:15:23;;;;;;;11.40;10.40;;;31.60;64.20;;;;;;4856069;29;20070;-84
2021/06/29 12:18:08;;;;;;;11.32;10.32;;;31.90;63.50;;;;;;4860533;29;20542;-84
2021/06/29 12:20:37;;;;;;;12.00;10.90;;;32.30;62.30;;;;;;4840862;29;20037;-81
2021/06/29 12:23:05;;;;;;;11.13;10.13;;;32.30;61.30;;;;;;4856614;29;20120;-81
2021/06/29 12:25:39;;;;;;;9.82;8.93;;;32.30;61.60;;;;;;4861370;29;20103;-80
2021/06/29 12:28:13;;;;;;;12.50;11.18;;;32.40;60.90;;;;;;4867265;29;20033;-80
2021/06/29 12:30:51;;;;;;;11.52;10.52;;;32.10;61.30;;;;;;4864887;29;20033;-80
2021/06/29 12:33:23;;;;;;;10.20;9.40;;;32.10;61.40;;;;;;4855798;29;20192;-81
2021/06/29 12:36:15;;;;;;;10.00;9.10;;;31.90;60.50;;;;;;4862925;29;20479;-82
2021/06/29 12:38:53;;;;;;;10.80;9.70;;;31.70;60.60;;;;;;4858630;29;20104;-82
2021/06/29 12:41:28;;;;;;;10.68;9.68;;;31.50;61.10;;;;;;4863545;29;20025;-82
2021/06/29 12:43:56;;;;;;;10.85;9.75;;;31.20;61.70;;;;;;4862747;29;20037;-83
2021/06/29 12:46:27;;;;;;;11.15;10.10;;;31.40;62.40;;;;;;4863183;29;20034;-83
2021/06/29 12:49:05;;;;;;;15.07;13.10;;;31.40;62.80;;;;;;4862188;29;20147;-82
2021/06/29 12:51:35;;;;;;;12.38;10.90;;;31.20;63.20;;;;;;4857596;29;20033;-82